createdAt,value
2022-12-31T00:01:44.771Z,362.33
2022-12-31T00:04:12.487Z,356.75
2022-12-31T00:06:40.247Z,359.13
2022-12-31T00:09:09.124Z,350.73
2022-12-31T00:11:38.973Z,366.80
2022-12-31T00:14:07.757Z,356.15
2022-12-31T00:16:37.612Z,354.77
2022-12-31T00:19:08.840Z,330.23
2022-12-31T00:21:37.520Z,371.23
2022-12-31T00:24:06.615Z,385.73
2022-12-31T00:26:36.245Z,337.17
2022-12-31T00:29:06.391Z,359.67
2022-12-31T00:31:36.093Z,355.73
2022-12-31T00:34:04.920Z,366.15
2022-12-31T00:36:34.758Z,364.23
2022-12-31T00:39:04.492Z,364.42
2022-12-31T00:41:33.045Z,377.67
2022-12-31T00:44:01.537Z,391.60
2022-12-31T00:46:31.649Z,391.20
2022-12-31T00:48:59.383Z,375.75
2022-12-31T00:51:28.253Z,400.00
2022-12-31T00:53:56.825Z,378.20
2022-12-31T00:56:26.635Z,390.20
2022-12-31T00:58:55.261Z,380.60
2022-12-31T01:01:25.004Z,359.70
2022-12-31T01:03:56.382Z,392.15
2022-12-31T01:06:24.550Z,372.05
2022-12-31T01:08:53.665Z,389.45
2022-12-31T01:11:22.353Z,390.05
2022-12-31T01:13:53.247Z,410.52
2022-12-31T01:16:23.403Z,393.85
2022-12-31T01:18:51.746Z,402.90
2022-12-31T01:21:21.517Z,401.55
2022-12-31T01:23:49.391Z,407.30
2022-12-31T01:26:19.149Z,388.67
2022-12-31T01:28:47.218Z,411.73
2022-12-31T01:31:18.512Z,402.13
2022-12-31T01:33:46.996Z,402.67
2022-12-31T01:36:20.359Z,402.77
2022-12-31T01:38:54.783Z,389.63
2022-12-31T01:41:24.519Z,393.02
2022-12-31T01:43:55.126Z,382.80
2022-12-31T01:46:28.126Z,391.88
2022-12-31T01:49:00.299Z,379.63
2022-12-31T01:51:31.967Z,413.00
2022-12-31T01:54:03.905Z,411.27
2022-12-31T01:56:31.906Z,405.85
2022-12-31T01:59:00.432Z,415.73
2022-12-31T02:01:32.036Z,416.95
2022-12-31T02:04:06.271Z,421.17
2022-12-31T02:06:38.983Z,392.13
2022-12-31T02:09:08.514Z,372.40
2022-12-31T02:11:37.987Z,410.30
2022-12-31T02:14:09.473Z,396.55
2022-12-31T02:16:44.463Z,377.90
2022-12-31T02:19:42.188Z,380.00
2022-12-31T02:22:22.915Z,371.58
2022-12-31T02:25:21.388Z,355.83
2022-12-31T02:27:58.990Z,377.52
2022-12-31T02:30:31.913Z,379.83
2022-12-31T02:33:12.201Z,379.35
2022-12-31T02:35:48.250Z,366.38
2022-12-31T02:38:20.932Z,358.77
2022-12-31T02:40:49.124Z,380.67
2022-12-31T02:43:16.870Z,388.85
2022-12-31T02:45:49.790Z,361.27
2022-12-31T02:48:34.183Z,371.83
2022-12-31T02:51:13.193Z,369.08
2022-12-31T02:54:05.053Z,388.73
2022-12-31T02:56:39.922Z,372.75
2022-12-31T02:59:29.948Z,359.30
2022-12-31T03:02:17.163Z,382.15
2022-12-31T03:04:49.563Z,371.45
2022-12-31T03:07:21.595Z,344.35
2022-12-31T03:09:50.062Z,379.90
2022-12-31T03:12:36.671Z,366.50
2022-12-31T03:15:06.550Z,358.90
2022-12-31T03:17:35.698Z,328.42
2022-12-31T03:20:21.321Z,342.55
2022-12-31T03:22:49.097Z,347.38
2022-12-31T03:25:33.532Z,344.95
2022-12-31T03:28:02.356Z,333.30
2022-12-31T03:30:30.831Z,330.27
2022-12-31T03:33:00.492Z,347.42
2022-12-31T03:35:30.283Z,350.55
2022-12-31T03:37:58.504Z,360.00
2022-12-31T03:40:28.337Z,343.23
2022-12-31T03:42:56.893Z,367.85
2022-12-31T03:45:25.175Z,349.73
2022-12-31T03:47:53.165Z,344.00
2022-12-31T03:50:22.245Z,351.20
2022-12-31T03:52:50.025Z,362.73
2022-12-31T03:55:17.917Z,340.25
2022-12-31T03:57:45.609Z,356.35
2022-12-31T04:00:17.418Z,368.85
2022-12-31T04:02:45.267Z,361.17
2022-12-31T04:05:13.536Z,358.63
2022-12-31T04:07:43.261Z,372.85
2022-12-31T04:10:12.930Z,352.33
2022-12-31T04:12:41.264Z,380.27
2022-12-31T04:15:10.497Z,348.23
2022-12-31T04:17:38.446Z,354.55
2022-12-31T04:20:07.049Z,355.70
2022-12-31T04:22:34.667Z,348.35
2022-12-31T04:25:03.712Z,361.95
2022-12-31T04:27:31.349Z,357.50
2022-12-31T04:29:58.967Z,357.98
2022-12-31T04:32:26.670Z,338.67
2022-12-31T04:34:54.295Z,378.40
2022-12-31T04:37:21.924Z,338.85
2022-12-31T04:39:49.536Z,343.33
2022-12-31T04:42:18.551Z,355.40
2022-12-31T04:44:46.198Z,358.63
2022-12-31T04:47:16.283Z,347.67
2022-12-31T04:49:47.766Z,354.25
2022-12-31T04:52:15.352Z,355.60
2022-12-31T04:54:42.978Z,360.67
2022-12-31T04:57:10.610Z,359.15
2022-12-31T04:59:39.646Z,351.88
2022-12-31T05:02:07.532Z,346.65
2022-12-31T05:04:35.375Z,343.85
2022-12-31T05:07:03.027Z,362.00
2022-12-31T05:09:31.026Z,347.23
2022-12-31T05:11:58.868Z,377.02
2022-12-31T05:14:26.547Z,353.50
2022-12-31T05:16:55.940Z,360.90
2022-12-31T05:19:23.729Z,373.25
2022-12-31T05:22:06.036Z,356.55
2022-12-31T05:24:33.744Z,352.73
2022-12-31T05:27:01.385Z,352.85
2022-12-31T05:29:29.072Z,357.42
2022-12-31T05:31:58.096Z,363.25
2022-12-31T05:34:25.772Z,362.52
2022-12-31T05:36:53.753Z,391.98
2022-12-31T05:39:22.129Z,355.80
2022-12-31T05:41:49.827Z,356.67
2022-12-31T05:44:17.501Z,352.30
2022-12-31T05:46:45.251Z,361.38
2022-12-31T05:49:14.257Z,352.40
2022-12-31T05:51:41.930Z,353.75
2022-12-31T05:54:09.663Z,348.33
2022-12-31T05:56:37.829Z,369.38
2022-12-31T05:59:05.880Z,343.58
2022-12-31T06:01:34.843Z,353.63
2022-12-31T06:04:02.641Z,346.00
2022-12-31T06:06:31.698Z,371.70
2022-12-31T06:08:59.485Z,365.85
2022-12-31T06:11:27.191Z,368.45
2022-12-31T06:13:54.896Z,341.02
2022-12-31T06:16:22.675Z,356.02
2022-12-31T06:18:50.746Z,381.67
2022-12-31T06:21:19.043Z,362.70
2022-12-31T06:23:48.284Z,357.60
2022-12-31T06:26:18.031Z,361.38
2022-12-31T06:28:45.697Z,386.23
2022-12-31T06:31:15.103Z,358.05
2022-12-31T06:33:43.246Z,362.40
2022-12-31T06:36:14.723Z,375.77
2022-12-31T06:38:44.148Z,364.95
2022-12-31T06:41:15.005Z,359.15
2022-12-31T06:43:44.420Z,361.27
2022-12-31T06:46:14.125Z,375.52
2022-12-31T06:48:44.608Z,349.45
2022-12-31T06:51:17.344Z,383.88
2022-12-31T06:53:45.376Z,358.88
2022-12-31T06:56:18.865Z,357.27
2022-12-31T06:58:47.117Z,365.45
2022-12-31T07:01:32.149Z,361.60
2022-12-31T07:04:06.183Z,373.77
2022-12-31T07:06:41.070Z,354.48
2022-12-31T07:09:17.493Z,377.92
2022-12-31T07:11:55.623Z,392.25
2022-12-31T07:14:34.816Z,364.75
2022-12-31T07:17:11.971Z,362.15
2022-12-31T07:19:55.462Z,364.13
2022-12-31T07:22:25.677Z,358.27
2022-12-31T07:24:54.071Z,361.63
2022-12-31T07:27:45.252Z,370.13
2022-12-31T07:30:16.851Z,390.38
2022-12-31T07:33:07.362Z,396.83
2022-12-31T07:35:43.255Z,374.55
2022-12-31T07:38:21.635Z,362.95
2022-12-31T07:40:58.000Z,369.50
2022-12-31T07:43:36.251Z,375.70
2022-12-31T07:46:12.677Z,359.05
2022-12-31T07:48:40.798Z,370.42
2022-12-31T07:51:11.551Z,365.65
2022-12-31T07:53:40.544Z,376.75
2022-12-31T07:56:09.817Z,371.58
2022-12-31T07:58:52.117Z,351.70
2022-12-31T08:01:31.027Z,364.33
2022-12-31T08:04:05.919Z,374.55
2022-12-31T08:06:45.403Z,344.73
2022-12-31T08:09:27.388Z,366.45
2022-12-31T08:11:58.039Z,379.08
2022-12-31T08:14:29.718Z,339.38
2022-12-31T08:16:58.457Z,355.73
2022-12-31T08:19:28.583Z,370.42
2022-12-31T08:22:09.288Z,362.13
2022-12-31T08:24:52.184Z,367.88
2022-12-31T08:27:27.197Z,354.15
2022-12-31T08:30:03.831Z,364.38
2022-12-31T08:32:40.137Z,367.73
2022-12-31T08:35:23.611Z,362.52
2022-12-31T08:38:00.307Z,358.38
2022-12-31T08:40:32.967Z,380.80
2022-12-31T08:43:18.507Z,353.45
2022-12-31T08:45:51.058Z,370.67
2022-12-31T08:48:30.043Z,388.08
2022-12-31T08:50:58.333Z,400.63
2022-12-31T08:53:26.499Z,375.08
2022-12-31T08:55:59.699Z,387.73
2022-12-31T08:58:41.605Z,356.48
2022-12-31T09:01:13.111Z,362.23
2022-12-31T09:03:53.771Z,380.05
2022-12-31T09:06:28.560Z,366.88
2022-12-31T09:09:01.692Z,384.13
2022-12-31T09:11:35.080Z,382.40
2022-12-31T09:14:18.480Z,393.15
2022-12-31T09:16:57.413Z,382.60
2022-12-31T09:19:25.068Z,372.25
2022-12-31T09:21:53.111Z,360.20
2022-12-31T09:24:21.262Z,368.63
2022-12-31T09:26:58.327Z,384.75
2022-12-31T09:29:42.310Z,358.83
2022-12-31T09:32:20.599Z,400.80
2022-12-31T09:34:55.165Z,374.10
2022-12-31T09:37:34.676Z,360.35
2022-12-31T09:40:11.898Z,366.08
2022-12-31T09:43:30.978Z,361.33
2022-12-31T09:46:30.717Z,350.98
2022-12-31T09:49:26.626Z,361.27
2022-12-31T09:52:07.529Z,364.17
2022-12-31T09:54:51.043Z,390.48
2022-12-31T09:57:31.415Z,378.60
2022-12-31T10:00:03.843Z,383.15
2022-12-31T10:02:58.461Z,398.00
2022-12-31T10:05:57.610Z,388.67
2022-12-31T10:08:47.760Z,379.20
2022-12-31T10:11:20.637Z,377.33
2022-12-31T10:14:03.007Z,389.02
2022-12-31T10:16:56.723Z,402.55
2022-12-31T10:19:51.406Z,378.38
2022-12-31T10:22:41.254Z,410.45
2022-12-31T10:25:38.831Z,402.45
2022-12-31T10:28:19.198Z,406.70
2022-12-31T10:30:59.040Z,406.92
2022-12-31T10:33:39.310Z,396.90
2022-12-31T10:36:12.889Z,430.83
2022-12-31T10:38:52.199Z,448.60
2022-12-31T10:41:48.659Z,436.77
2022-12-31T10:44:47.379Z,390.67
2022-12-31T10:47:38.943Z,411.88
2022-12-31T10:50:49.882Z,448.25
2022-12-31T10:53:50.648Z,433.27
2022-12-31T10:56:47.989Z,442.65
2022-12-31T10:59:35.032Z,450.80
2022-12-31T11:02:24.385Z,448.77
2022-12-31T11:05:37.368Z,443.20
2022-12-31T11:08:21.614Z,438.63
2022-12-31T11:11:12.907Z,454.45
2022-12-31T11:14:10.981Z,442.55
2022-12-31T11:16:49.226Z,456.83
2022-12-31T11:19:22.503Z,456.08
2022-12-31T11:22:04.541Z,468.90
2022-12-31T11:24:43.496Z,479.23
2022-12-31T11:27:25.868Z,440.70
2022-12-31T11:30:05.027Z,428.77
2022-12-31T11:32:50.470Z,466.95
2022-12-31T11:35:32.843Z,444.20
2022-12-31T11:38:15.156Z,442.50
2022-12-31T11:40:54.127Z,457.23
2022-12-31T11:43:29.781Z,440.65
2022-12-31T11:46:25.793Z,425.25
2022-12-31T11:49:05.815Z,454.30
2022-12-31T11:51:50.180Z,421.08
2022-12-31T11:54:52.529Z,385.63
2022-12-31T11:57:27.173Z,363.92
2022-12-31T12:00:00.316Z,402.33
2022-12-31T12:02:30.808Z,382.45
2022-12-31T12:05:08.288Z,363.98
2022-12-31T12:07:38.144Z,356.25
2022-12-31T12:10:18.046Z,377.48
2022-12-31T12:12:45.635Z,380.77
2022-12-31T12:15:21.157Z,393.17
2022-12-31T12:17:53.161Z,370.25
2022-12-31T12:20:28.455Z,371.58
2022-12-31T12:22:58.325Z,359.77
2022-12-31T12:25:28.025Z,378.15
2022-12-31T12:27:55.969Z,362.90
2022-12-31T12:30:27.105Z,370.70
2022-12-31T12:32:57.569Z,377.75
2022-12-31T12:35:27.809Z,353.65
2022-12-31T12:38:03.647Z,359.08
2022-12-31T12:40:34.322Z,352.88
2022-12-31T12:43:03.492Z,392.02
2022-12-31T12:45:47.763Z,371.98
2022-12-31T12:48:26.678Z,356.30
2022-12-31T12:50:54.499Z,350.02
2022-12-31T12:53:34.656Z,367.45
2022-12-31T12:56:13.273Z,379.25
2022-12-31T12:58:54.911Z,378.08
2022-12-31T13:01:34.098Z,386.73
2022-12-31T13:04:35.710Z,362.50
2022-12-31T13:07:12.900Z,383.52
2022-12-31T13:10:04.357Z,372.42
2022-12-31T13:13:05.307Z,367.95
2022-12-31T13:15:34.567Z,363.73
2022-12-31T13:18:14.802Z,369.02
2022-12-31T13:20:48.766Z,363.23
2022-12-31T13:23:23.054Z,369.73
2022-12-31T13:26:08.038Z,369.38
2022-12-31T13:28:40.335Z,366.13
2022-12-31T13:31:14.207Z,375.48
2022-12-31T13:33:47.977Z,370.65
2022-12-31T13:36:18.370Z,344.63
2022-12-31T13:38:49.508Z,369.67
2022-12-31T13:41:22.145Z,346.83
2022-12-31T13:43:56.748Z,374.00
2022-12-31T13:46:29.275Z,358.73
2022-12-31T13:49:02.557Z,354.38
2022-12-31T13:51:41.778Z,373.55
2022-12-31T13:54:22.947Z,340.77
2022-12-31T13:56:52.993Z,364.67
2022-12-31T13:59:24.784Z,343.40
2022-12-31T14:01:57.085Z,370.48
2022-12-31T14:04:34.457Z,354.83
2022-12-31T14:07:07.980Z,371.38
2022-12-31T14:09:36.450Z,375.23
2022-12-31T14:12:22.855Z,385.08
2022-12-31T14:14:59.859Z,361.25
2022-12-31T14:17:39.020Z,356.88
2022-12-31T14:20:16.989Z,350.13
2022-12-31T14:22:51.501Z,356.45
2022-12-31T14:25:24.554Z,344.83
2022-12-31T14:27:55.605Z,358.23
2022-12-31T14:30:27.002Z,362.38
2022-12-31T14:33:26.027Z,356.80
2022-12-31T14:36:10.586Z,349.55
2022-12-31T14:38:52.352Z,340.20
2022-12-31T14:41:40.840Z,346.20
2022-12-31T14:44:27.888Z,337.83
2022-12-31T14:47:06.742Z,328.48
2022-12-31T14:49:43.017Z,345.92
2022-12-31T14:52:22.697Z,348.30
2022-12-31T14:55:00.520Z,345.15
2022-12-31T14:58:01.563Z,321.60
2022-12-31T15:00:32.432Z,339.00
2022-12-31T15:03:02.310Z,318.35
2022-12-31T15:05:32.020Z,320.10
2022-12-31T15:08:21.943Z,343.33
2022-12-31T15:11:12.090Z,337.27
2022-12-31T15:13:53.057Z,337.67
2022-12-31T15:16:33.910Z,338.40
2022-12-31T15:19:30.962Z,339.50
2022-12-31T15:22:06.093Z,342.65
2022-12-31T15:24:35.224Z,349.55
2022-12-31T15:27:06.251Z,342.67
2022-12-31T15:29:37.580Z,341.80
2022-12-31T15:32:08.745Z,346.55
2022-12-31T15:34:37.506Z,335.92
2022-12-31T15:37:07.715Z,339.95
2022-12-31T15:39:44.897Z,342.63
2022-12-31T15:42:38.644Z,342.65
2022-12-31T15:45:15.817Z,326.95
2022-12-31T15:47:47.654Z,334.08
2022-12-31T15:50:18.975Z,318.20
2022-12-31T15:52:51.410Z,342.80
2022-12-31T15:55:27.156Z,321.83
2022-12-31T15:58:00.136Z,324.42
2022-12-31T16:00:38.505Z,326.33
2022-12-31T16:03:20.831Z,326.52
2022-12-31T16:05:49.136Z,309.30
2022-12-31T16:08:20.974Z,325.05
2022-12-31T16:10:50.156Z,328.98
2022-12-31T16:13:22.790Z,314.08
2022-12-31T16:15:52.746Z,309.05
2022-12-31T16:18:23.011Z,321.40
2022-12-31T16:20:51.864Z,305.50
2022-12-31T16:23:23.468Z,327.88
2022-12-31T16:25:58.795Z,316.92
2022-12-31T16:28:31.413Z,304.75
2022-12-31T16:31:02.674Z,330.70
2022-12-31T16:33:32.151Z,319.80
2022-12-31T16:36:01.138Z,320.35
2022-12-31T16:38:33.634Z,302.15
2022-12-31T16:41:17.700Z,301.95
2022-12-31T16:43:47.145Z,304.92
2022-12-31T16:46:20.179Z,317.15
2022-12-31T16:48:50.583Z,317.13
2022-12-31T16:51:21.134Z,319.77
2022-12-31T16:53:50.142Z,324.88
2022-12-31T16:56:25.935Z,320.50
2022-12-31T16:59:01.324Z,304.52
2022-12-31T17:01:33.503Z,308.23
2022-12-31T17:04:05.011Z,312.13
2022-12-31T17:06:33.580Z,319.00
2022-12-31T17:09:13.993Z,307.05
2022-12-31T17:11:51.387Z,296.55
2022-12-31T17:14:22.932Z,302.98
2022-12-31T17:17:02.178Z,308.45
2022-12-31T17:19:44.834Z,296.75
2022-12-31T17:22:21.712Z,299.20
2022-12-31T17:24:52.921Z,288.15
2022-12-31T17:27:21.877Z,292.23
2022-12-31T17:29:49.539Z,311.38
2022-12-31T17:32:31.999Z,324.48
2022-12-31T17:34:59.844Z,292.95
2022-12-31T17:37:29.518Z,304.65
2022-12-31T17:40:17.371Z,307.75
2022-12-31T17:42:50.317Z,279.17
2022-12-31T17:45:21.694Z,301.85
2022-12-31T17:47:52.528Z,318.60
2022-12-31T17:50:22.651Z,287.30
2022-12-31T17:52:50.618Z,303.55
2022-12-31T17:55:18.198Z,286.33
2022-12-31T17:57:52.183Z,309.23
2022-12-31T18:00:21.877Z,289.45
2022-12-31T18:02:49.673Z,283.92
2022-12-31T18:05:19.343Z,298.63
2022-12-31T18:07:47.037Z,288.33
2022-12-31T18:10:16.859Z,305.20
2022-12-31T18:12:45.933Z,292.58
2022-12-31T18:15:18.076Z,284.05
2022-12-31T18:17:46.076Z,294.38
2022-12-31T18:20:14.038Z,294.52
2022-12-31T18:22:43.135Z,280.48
2022-12-31T18:25:14.628Z,296.10
2022-12-31T18:27:42.409Z,295.10
2022-12-31T18:30:10.986Z,293.50
2022-12-31T18:32:42.254Z,284.45
2022-12-31T18:35:40.292Z,277.55
2022-12-31T18:38:02.995Z,262.85
2022-12-31T18:40:30.796Z,269.65
2022-12-31T18:43:04.504Z,255.45
2022-12-31T18:45:32.715Z,261.75
2022-12-31T18:48:01.743Z,251.18
2022-12-31T18:50:29.428Z,260.00
2022-12-31T18:52:57.070Z,280.45
2022-12-31T18:55:33.042Z,259.45
2022-12-31T18:58:00.698Z,259.42
2022-12-31T19:00:28.349Z,262.48
2022-12-31T19:02:56.027Z,252.68
2022-12-31T19:05:27.428Z,261.13
2022-12-31T19:07:55.704Z,262.60
2022-12-31T19:10:24.297Z,251.70
2022-12-31T19:12:52.208Z,263.38
2022-12-31T19:15:25.883Z,244.80
2022-12-31T19:17:53.549Z,252.20
2022-12-31T19:20:21.155Z,245.57
2022-12-31T19:22:50.240Z,249.10
2022-12-31T19:25:20.831Z,258.25
2022-12-31T19:27:49.001Z,258.52
2022-12-31T19:30:18.698Z,263.27
2022-12-31T19:32:46.358Z,257.27
2022-12-31T19:35:16.064Z,255.93
2022-12-31T19:37:44.965Z,261.70
2022-12-31T19:40:16.928Z,263.60
2022-12-31T19:42:45.460Z,250.35
2022-12-31T19:45:17.442Z,270.45
2022-12-31T19:47:46.460Z,253.75
2022-12-31T19:50:15.574Z,255.10
2022-12-31T19:52:44.065Z,263.75
2022-12-31T19:55:15.929Z,271.77
2022-12-31T19:57:43.638Z,297.92
2022-12-31T20:00:14.206Z,278.52
2022-12-31T20:02:42.935Z,280.95
2022-12-31T20:05:11.955Z,277.55
2022-12-31T20:07:39.843Z,271.90
2022-12-31T20:10:08.867Z,261.80
2022-12-31T20:12:44.131Z,262.27
2022-12-31T20:15:12.426Z,270.83
2022-12-31T20:17:40.459Z,264.80
2022-12-31T20:20:09.190Z,274.30
2022-12-31T20:22:36.823Z,269.67
2022-12-31T20:25:04.920Z,255.00
2022-12-31T20:27:33.397Z,258.55
2022-12-31T20:30:03.383Z,256.63
2022-12-31T20:32:32.179Z,272.45
2022-12-31T20:34:59.854Z,272.02
2022-12-31T20:37:27.496Z,275.13
2022-12-31T20:39:55.113Z,260.25
2022-12-31T20:42:22.785Z,256.02
2022-12-31T20:44:50.393Z,255.70
2022-12-31T20:47:19.416Z,263.90
2022-12-31T20:50:10.261Z,261.13
2022-12-31T20:52:34.682Z,254.95
2022-12-31T20:55:02.324Z,256.60
2022-12-31T20:57:33.579Z,271.10
2022-12-31T21:00:01.767Z,270.92
2022-12-31T21:02:41.689Z,257.92
2022-12-31T21:05:10.707Z,261.67
2022-12-31T21:07:38.517Z,259.83
2022-12-31T21:10:07.048Z,234.13
2022-12-31T21:12:43.060Z,256.33
2022-12-31T21:15:11.255Z,261.58
2022-12-31T21:17:40.197Z,249.45
2022-12-31T21:20:09.211Z,256.85
2022-12-31T21:22:36.892Z,269.02
2022-12-31T21:25:05.341Z,265.38
2022-12-31T21:27:33.016Z,277.05
2022-12-31T21:32:49.613Z,270.23
2022-12-31T21:38:06.647Z,270.52
2022-12-31T21:40:35.073Z,272.45
2022-12-31T21:43:02.704Z,284.50
2022-12-31T21:45:30.391Z,272.65
2022-12-31T21:48:19.071Z,264.48
2022-12-31T21:50:48.459Z,263.50
2022-12-31T21:53:21.810Z,299.30
2022-12-31T21:56:11.495Z,282.33
2022-12-31T21:58:41.154Z,290.80
2022-12-31T22:01:33.465Z,301.25
2022-12-31T22:04:02.682Z,293.42
2022-12-31T22:06:30.845Z,292.90
2022-12-31T22:08:58.512Z,302.08
2022-12-31T22:11:28.333Z,303.58
2022-12-31T22:13:56.675Z,295.73
2022-12-31T22:16:24.861Z,299.05
2022-12-31T22:18:55.512Z,301.10
2022-12-31T22:21:26.536Z,288.13
2022-12-31T22:23:55.854Z,312.13
2022-12-31T22:26:26.919Z,301.67
2022-12-31T22:28:58.895Z,306.30
2022-12-31T22:31:29.721Z,314.80
2022-12-31T22:33:58.294Z,319.45
2022-12-31T22:36:27.465Z,307.63
2022-12-31T22:38:58.660Z,294.50
2022-12-31T22:41:29.926Z,317.83
2022-12-31T22:44:03.700Z,312.35
2022-12-31T22:46:33.501Z,312.75
2022-12-31T22:49:02.837Z,299.38
2022-12-31T22:51:54.800Z,317.48
2022-12-31T22:54:20.303Z,317.65
2022-12-31T22:56:47.947Z,317.52
2022-12-31T22:59:15.567Z,322.20
2022-12-31T23:01:43.214Z,321.15
2022-12-31T23:04:12.002Z,346.25
2022-12-31T23:06:44.192Z,330.20
2022-12-31T23:09:30.180Z,350.42
2022-12-31T23:11:57.980Z,385.08
2022-12-31T23:14:43.582Z,388.23
2022-12-31T23:17:33.725Z,323.92
2022-12-31T23:20:19.261Z,319.83
2022-12-31T23:23:07.530Z,324.45
2022-12-31T23:25:36.247Z,333.02
2022-12-31T23:28:04.871Z,329.95
2022-12-31T23:30:33.037Z,337.30
2022-12-31T23:33:00.917Z,360.10
2022-12-31T23:35:29.927Z,350.48
2022-12-31T23:37:58.943Z,352.15
2022-12-31T23:40:34.088Z,335.65
2022-12-31T23:43:03.384Z,348.90
2022-12-31T23:45:33.412Z,361.23
2022-12-31T23:48:01.638Z,342.40
2022-12-31T23:50:29.420Z,360.55
2022-12-31T23:52:57.096Z,363.92
2022-12-31T23:55:26.067Z,359.83
2022-12-31T23:57:53.632Z,351.55
